createdAt,value
2022-11-14T00:03:05.373Z,100431.78
2022-11-14T00:06:25.610Z,100437.53
2022-11-14T00:09:45.961Z,100435.66
2022-11-14T00:13:07.826Z,100443.81
2022-11-14T00:16:28.163Z,100434.91
2022-11-14T00:19:48.457Z,100431.34
2022-11-14T00:23:08.902Z,100424.81
2022-11-14T00:26:29.037Z,100421.47
2022-11-14T00:29:50.897Z,100424.75
2022-11-14T00:33:14.710Z,100423.53
2022-11-14T00:36:37.673Z,100415.13
2022-11-14T00:39:58.078Z,100409.53
2022-11-14T00:43:18.720Z,100405.44
2022-11-14T00:46:40.431Z,100403.75
2022-11-14T00:50:00.538Z,100397.81
2022-11-14T00:53:21.085Z,100395.78
2022-11-14T00:56:41.446Z,100396.50
2022-11-14T01:00:01.844Z,100383.50
2022-11-14T01:03:23.533Z,100385.00
2022-11-14T01:06:43.830Z,100383.72
2022-11-14T01:10:05.307Z,100382.44
2022-11-14T01:13:26.864Z,100376.88
2022-11-14T01:16:47.295Z,100364.88
2022-11-14T01:20:09.550Z,100376.25
2022-11-14T01:23:29.749Z,100365.13
2022-11-14T01:26:50.185Z,100359.94
2022-11-14T01:30:11.810Z,100361.81
2022-11-14T01:33:31.806Z,100359.03
2022-11-14T01:36:53.441Z,100351.66
2022-11-14T01:40:13.607Z,100345.50
2022-11-14T01:43:34.964Z,100337.72
2022-11-14T01:46:56.705Z,100328.25
2022-11-14T01:50:16.979Z,100332.88
2022-11-14T01:53:38.728Z,100323.78
2022-11-14T01:57:02.025Z,100309.50
2022-11-14T02:00:22.144Z,100299.47
2022-11-14T02:03:45.848Z,100299.47
2022-11-14T02:07:07.840Z,100290.56
2022-11-14T02:10:29.691Z,100288.88
2022-11-14T02:13:50.514Z,100283.31
2022-11-14T02:20:53.234Z,100291.81
2022-11-14T02:24:14.106Z,100284.94
2022-11-14T02:27:36.242Z,100276.19
2022-11-14T02:30:56.459Z,100283.94
2022-11-14T02:34:19.888Z,100278.91
2022-11-14T02:37:42.066Z,100282.28
2022-11-14T02:41:02.764Z,100276.28
2022-11-14T02:44:23.082Z,100276.25
2022-11-14T02:47:43.545Z,100271.59
2022-11-14T02:51:03.800Z,100263.22
2022-11-14T02:54:25.420Z,100259.47
2022-11-14T02:57:45.800Z,100259.53
2022-11-14T03:01:20.264Z,100250.53
2022-11-14T03:04:41.312Z,100251.72
2022-11-14T03:08:01.595Z,100255.34
2022-11-14T03:11:23.444Z,100247.13
2022-11-14T03:14:43.807Z,100241.03
2022-11-14T03:18:04.145Z,100230.72
2022-11-14T03:21:24.571Z,100227.91
2022-11-14T03:24:44.644Z,100225.28
2022-11-14T03:28:06.324Z,100237.50
2022-11-14T03:31:26.583Z,100228.03
2022-11-14T03:34:46.592Z,100235.78
2022-11-14T03:38:07.000Z,100233.75
2022-11-14T03:41:27.438Z,100231.50
2022-11-14T03:44:48.904Z,100244.25
2022-11-14T03:48:09.342Z,100245.56
2022-11-14T03:51:29.798Z,100240.69
2022-11-14T03:54:50.797Z,100243.03
2022-11-14T03:58:11.049Z,100234.13
2022-11-14T04:01:33.102Z,100221.09
2022-11-14T04:04:53.361Z,100233.72
2022-11-14T04:08:13.728Z,100226.03
2022-11-14T04:11:34.072Z,100219.28
2022-11-14T04:14:54.186Z,100226.69
2022-11-14T04:18:15.594Z,100213.09
2022-11-14T04:21:36.180Z,100207.47
2022-11-14T04:24:56.283Z,100204.03
2022-11-14T04:28:17.027Z,100215.97
2022-11-14T04:31:37.012Z,100215.56
2022-11-14T04:34:59.473Z,100215.00
2022-11-14T04:38:19.973Z,100215.16
2022-11-14T04:41:40.596Z,100208.41
2022-11-14T04:45:00.840Z,100222.56
2022-11-14T04:48:21.150Z,100220.88
2022-11-14T04:51:42.880Z,100230.88
2022-11-14T04:55:03.536Z,100224.50
2022-11-14T04:58:23.968Z,100217.50
2022-11-14T05:01:44.354Z,100217.59
2022-11-14T05:05:05.428Z,100211.19
2022-11-14T05:08:27.654Z,100209.03
2022-11-14T05:11:48.177Z,100217.31
2022-11-14T05:15:09.381Z,100211.28
2022-11-14T05:18:29.763Z,100206.84
2022-11-14T05:21:50.617Z,100191.25
2022-11-14T05:25:12.033Z,100196.22
2022-11-14T05:28:32.794Z,100191.88
2022-11-14T05:31:53.596Z,100196.00
2022-11-14T05:35:14.066Z,100195.81
2022-11-14T05:38:34.612Z,100178.84
2022-11-14T05:41:56.307Z,100176.56
2022-11-14T05:45:16.479Z,100159.28
2022-11-14T05:48:37.705Z,100163.97
2022-11-14T05:51:58.128Z,100156.06
2022-11-14T05:55:24.239Z,100176.75
2022-11-14T05:58:46.742Z,100168.75
2022-11-14T06:02:07.126Z,100174.09
2022-11-14T06:05:27.580Z,100159.03
2022-11-14T06:08:48.427Z,100163.84
2022-11-14T06:12:08.847Z,100158.88
2022-11-14T06:15:30.412Z,100162.97
2022-11-14T06:18:52.780Z,100150.75
2022-11-14T06:22:12.978Z,100149.16
2022-11-14T06:25:33.476Z,100147.72
2022-11-14T06:28:53.923Z,100135.94
2022-11-14T06:32:15.701Z,100151.50
2022-11-14T06:35:37.018Z,100151.41
2022-11-14T06:38:57.038Z,100153.53
2022-11-14T06:42:17.643Z,100157.63
2022-11-14T06:45:37.793Z,100156.47
2022-11-14T06:48:59.716Z,100158.72
2022-11-14T06:52:20.319Z,100156.97
2022-11-14T06:55:40.678Z,100161.75
2022-11-14T06:59:00.845Z,100163.94
2022-11-14T07:02:22.133Z,100161.38
2022-11-14T07:05:43.995Z,100162.16
2022-11-14T07:09:04.324Z,100161.97
2022-11-14T07:12:24.796Z,100166.69
2022-11-14T07:15:50.953Z,100171.19
2022-11-14T07:19:11.431Z,100173.00
2022-11-14T07:22:33.148Z,100152.66
2022-11-14T07:25:53.643Z,100157.38
2022-11-14T07:29:13.984Z,100154.94
2022-11-14T07:32:34.724Z,100158.03
2022-11-14T07:35:54.735Z,100177.88
2022-11-14T07:39:16.582Z,100172.25
2022-11-14T07:42:37.141Z,100172.28
2022-11-14T07:46:00.048Z,100179.59
2022-11-14T07:49:20.471Z,100166.88
2022-11-14T07:52:40.792Z,100164.59
2022-11-14T07:56:06.166Z,100173.84
2022-11-14T07:59:26.350Z,100166.34
2022-11-14T08:02:47.451Z,100159.28
2022-11-14T08:06:10.195Z,100171.13
2022-11-14T08:09:30.408Z,100166.56
2022-11-14T08:13:11.043Z,100171.03
2022-11-14T08:16:39.480Z,100173.78
2022-11-14T08:19:59.774Z,100174.38
2022-11-14T08:23:20.100Z,100173.78
2022-11-14T08:26:40.548Z,100182.47
2022-11-14T08:30:02.478Z,100172.06
2022-11-14T08:33:22.941Z,100189.59
2022-11-14T08:36:43.261Z,100194.38
2022-11-14T08:40:04.388Z,100195.81
2022-11-14T08:43:24.588Z,100188.38
2022-11-14T08:46:46.135Z,100182.44
2022-11-14T08:50:07.170Z,100178.69
2022-11-14T08:53:27.309Z,100169.81
2022-11-14T08:56:47.830Z,100156.09
2022-11-14T09:00:09.357Z,100150.25
2022-11-14T09:03:31.384Z,100151.97
2022-11-14T09:06:52.018Z,100141.78
2022-11-14T09:10:12.300Z,100139.34
2022-11-14T09:13:33.412Z,100148.91
2022-11-14T09:16:53.569Z,100153.28
2022-11-14T09:20:15.122Z,100157.94
2022-11-14T09:23:35.829Z,100159.34
2022-11-14T09:26:57.194Z,100162.72
2022-11-14T09:30:17.722Z,100167.63
2022-11-14T09:33:38.060Z,100152.41
2022-11-14T09:36:59.723Z,100154.41
2022-11-14T09:40:20.209Z,100151.34
2022-11-14T09:43:59.041Z,100151.03
2022-11-14T09:47:23.339Z,100153.66
2022-11-14T09:50:48.588Z,100148.41
2022-11-14T09:54:20.764Z,100137.94
2022-11-14T09:57:44.092Z,100142.91
2022-11-14T10:01:09.399Z,100155.50
2022-11-14T10:04:54.276Z,100150.25
2022-11-14T10:08:35.448Z,100146.25
2022-11-14T10:12:04.297Z,100133.63
2022-11-14T10:15:34.073Z,100131.00
2022-11-14T10:19:10.560Z,100133.78
2022-11-14T10:22:48.719Z,100139.66
2022-11-14T10:26:15.598Z,100142.88
2022-11-14T10:30:01.371Z,100135.63
2022-11-14T10:33:34.793Z,100136.38
2022-11-14T10:37:03.278Z,100134.72
2022-11-14T10:40:25.748Z,100131.34
2022-11-14T10:43:47.783Z,100127.94
2022-11-14T10:47:14.614Z,100123.31
2022-11-14T10:50:42.844Z,100120.13
2022-11-14T10:54:10.676Z,100113.78
2022-11-14T10:57:31.522Z,100100.56
2022-11-14T11:00:52.134Z,100099.09
2022-11-14T11:04:24.608Z,100095.34
2022-11-14T11:08:28.190Z,100089.34
2022-11-14T11:11:53.380Z,100080.53
2022-11-14T11:15:17.827Z,100087.19
2022-11-14T11:18:38.190Z,100073.19
2022-11-14T11:21:59.990Z,100068.84
2022-11-14T11:25:25.618Z,100065.22
2022-11-14T11:29:02.115Z,100063.72
2022-11-14T11:32:28.155Z,100054.09
2022-11-14T11:35:50.465Z,100055.72
2022-11-14T11:39:22.707Z,100049.41
2022-11-14T11:46:38.726Z,100045.63
2022-11-14T11:50:02.139Z,100038.31
2022-11-14T11:53:27.631Z,100037.34
2022-11-14T11:56:58.395Z,100029.09
2022-11-14T12:00:22.976Z,100037.56
2022-11-14T12:03:47.513Z,100033.38
2022-11-14T12:07:12.297Z,100033.59
2022-11-14T12:10:37.564Z,100027.72
2022-11-14T12:14:47.281Z,100037.56
2022-11-14T12:18:43.778Z,100033.25
2022-11-14T12:22:20.294Z,100034.34
2022-11-14T12:25:53.983Z,100034.47
2022-11-14T12:29:35.427Z,100028.44
2022-11-14T12:33:03.795Z,100031.44
2022-11-14T12:36:28.739Z,100029.41
2022-11-14T12:39:57.431Z,100033.41
2022-11-14T12:43:36.030Z,100036.44
2022-11-14T12:47:16.009Z,100031.34
2022-11-14T12:50:43.421Z,100033.81
2022-11-14T12:54:04.168Z,100030.38
2022-11-14T12:57:47.649Z,100024.94
2022-11-14T13:01:23.597Z,100017.38
2022-11-14T13:05:00.837Z,100012.69
2022-11-14T13:08:47.168Z,100009.28
2022-11-14T13:12:50.304Z,99997.22
2022-11-14T13:16:23.891Z,99995.66
2022-11-14T13:20:07.482Z,99995.41
2022-11-14T13:23:56.714Z,99992.91
2022-11-14T13:27:52.151Z,99997.25
2022-11-14T13:31:19.425Z,100001.44
2022-11-14T13:34:46.013Z,99990.69
2022-11-14T13:38:24.130Z,99992.47
2022-11-14T13:42:08.279Z,99992.91
2022-11-14T13:45:48.615Z,99988.69
2022-11-14T13:49:28.228Z,99980.44
2022-11-14T13:52:49.335Z,99983.19
2022-11-14T13:56:24.743Z,99980.28
2022-11-14T13:59:59.427Z,99978.59
2022-11-14T14:03:36.528Z,99980.56
2022-11-14T14:07:07.905Z,99979.50
2022-11-14T14:10:40.489Z,99977.00
2022-11-14T14:14:14.826Z,99976.84
2022-11-14T14:17:47.165Z,99984.09
2022-11-14T14:21:19.709Z,99985.78
2022-11-14T14:24:52.890Z,99979.06
2022-11-14T14:28:22.642Z,99981.03
2022-11-14T14:31:44.493Z,99979.81
2022-11-14T14:35:21.685Z,99988.72
2022-11-14T14:38:42.311Z,100001.47
2022-11-14T14:42:11.329Z,99995.47
2022-11-14T14:45:44.379Z,100010.66
2022-11-14T14:49:05.963Z,100011.50
2022-11-14T14:52:29.656Z,100000.09
2022-11-14T14:55:55.338Z,100024.09
2022-11-14T14:59:17.739Z,99996.50
2022-11-14T15:02:38.448Z,100004.47
2022-11-14T15:06:02.017Z,100006.66
2022-11-14T15:09:24.193Z,99999.09
2022-11-14T15:12:44.963Z,100002.66
2022-11-14T15:16:06.599Z,99991.41
2022-11-14T15:19:32.510Z,100004.09
2022-11-14T15:23:05.476Z,99989.41
2022-11-14T15:26:26.050Z,99994.81
2022-11-14T15:29:47.775Z,99993.91
2022-11-14T15:33:27.344Z,100002.34
2022-11-14T15:37:30.524Z,99988.91
2022-11-14T15:41:15.449Z,99999.59
2022-11-14T15:44:35.610Z,100001.00
2022-11-14T15:48:00.382Z,100000.63
2022-11-14T15:51:40.725Z,99997.88
2022-11-14T15:55:01.792Z,99997.78
2022-11-14T15:58:30.396Z,100003.59
2022-11-14T16:01:55.021Z,100000.59
2022-11-14T16:05:16.693Z,100000.19
2022-11-14T16:08:36.986Z,99997.56
2022-11-14T16:11:57.288Z,99997.13
2022-11-14T16:15:20.927Z,100000.19
2022-11-14T16:18:41.310Z,99994.00
2022-11-14T16:22:02.909Z,99988.13
2022-11-14T16:25:25.515Z,99996.94
2022-11-14T16:28:45.705Z,99999.31
2022-11-14T16:32:10.070Z,100005.09
2022-11-14T16:35:30.369Z,100006.97
2022-11-14T16:38:52.473Z,100001.94
2022-11-14T16:42:12.773Z,100009.75
2022-11-14T16:45:33.385Z,100029.03
2022-11-14T16:48:55.725Z,100023.22
2022-11-14T16:52:17.062Z,100020.34
2022-11-14T16:55:37.344Z,100019.56
2022-11-14T16:58:57.761Z,100020.91
2022-11-14T17:02:18.866Z,100022.75
2022-11-14T17:05:44.279Z,100026.16
2022-11-14T17:09:04.592Z,100027.38
2022-11-14T17:12:24.862Z,100036.72
2022-11-14T17:15:45.263Z,100040.78
2022-11-14T17:19:05.869Z,100038.00
2022-11-14T17:22:28.219Z,100049.47
2022-11-14T17:25:48.343Z,100043.56
2022-11-14T17:29:09.069Z,100053.41
2022-11-14T17:32:29.655Z,100053.78
2022-11-14T17:35:49.933Z,100051.16
2022-11-14T17:39:11.608Z,100046.44
2022-11-14T17:42:31.912Z,100042.50
2022-11-14T17:45:56.057Z,100048.31
2022-11-14T17:49:16.421Z,100046.19
2022-11-14T17:52:37.252Z,100040.81
2022-11-14T17:55:58.574Z,100042.09
2022-11-14T17:59:20.411Z,100047.75
2022-11-14T18:02:40.897Z,100045.25
2022-11-14T18:06:08.439Z,100044.06
2022-11-14T18:09:29.503Z,100047.63
2022-11-14T18:12:51.065Z,100047.91
2022-11-14T18:16:13.796Z,100047.72
2022-11-14T18:19:34.090Z,100043.13
2022-11-14T18:22:54.410Z,100046.41
2022-11-14T18:26:18.650Z,100044.22
2022-11-14T18:29:40.248Z,100052.47
2022-11-14T18:33:00.650Z,100048.56
2022-11-14T18:36:20.795Z,100047.25
2022-11-14T18:39:41.195Z,100045.13
2022-11-14T18:43:01.648Z,100044.31
2022-11-14T18:46:24.977Z,100042.47
2022-11-14T18:49:45.223Z,100047.59
2022-11-14T18:53:05.688Z,100052.25
2022-11-14T18:56:26.368Z,100047.47
2022-11-14T18:59:48.116Z,100040.72
2022-11-14T19:03:09.454Z,100038.75
2022-11-14T19:06:31.101Z,100044.00
2022-11-14T19:09:51.310Z,100038.09
2022-11-14T19:13:11.907Z,100045.09
2022-11-14T19:16:33.201Z,100043.78
2022-11-14T19:19:54.595Z,100050.25
2022-11-14T19:23:15.112Z,100051.03
2022-11-14T19:26:35.598Z,100053.03
2022-11-14T19:29:56.064Z,100059.63
2022-11-14T19:33:16.572Z,100064.47
2022-11-14T19:36:59.001Z,100054.56
2022-11-14T19:40:19.034Z,100062.78
2022-11-14T19:43:39.858Z,100056.69
2022-11-14T19:47:02.247Z,100059.59
2022-11-14T19:50:24.587Z,100057.53
2022-11-14T19:53:46.530Z,100055.25
2022-11-14T19:57:06.879Z,100054.88
2022-11-14T20:00:29.272Z,100057.47
2022-11-14T20:03:54.948Z,100056.16
2022-11-14T20:07:15.292Z,100059.06
2022-11-14T20:10:47.665Z,100060.13
2022-11-14T20:14:10.641Z,100062.47
2022-11-14T20:17:32.314Z,100053.28
2022-11-14T20:20:52.751Z,100059.44
2022-11-14T20:24:17.500Z,100058.81
2022-11-14T20:27:39.187Z,100059.59
2022-11-14T20:31:03.308Z,100061.06
2022-11-14T20:34:23.709Z,100050.53
2022-11-14T20:37:43.969Z,100058.53
2022-11-14T20:41:04.730Z,100055.25
2022-11-14T20:44:26.324Z,100057.22
2022-11-14T20:47:46.623Z,100062.09
2022-11-14T20:51:08.837Z,100065.78
2022-11-14T20:54:29.270Z,100053.41
2022-11-14T20:57:49.429Z,100056.03
2022-11-14T21:01:11.461Z,100043.00
2022-11-14T21:04:31.721Z,100034.56
2022-11-14T21:07:52.169Z,100032.28
2022-11-14T21:11:15.833Z,100045.00
2022-11-14T21:14:36.221Z,100050.84
2022-11-14T21:17:58.025Z,100060.28
2022-11-14T21:21:20.705Z,100056.84
2022-11-14T21:24:41.101Z,100052.38
2022-11-14T21:28:01.343Z,100052.91
2022-11-14T21:31:23.558Z,100041.38
2022-11-14T21:34:44.994Z,100052.94
2022-11-14T21:38:05.326Z,100050.97
2022-11-14T21:41:27.972Z,100047.44
2022-11-14T21:44:48.550Z,100054.97
2022-11-14T21:48:08.957Z,100056.53
2022-11-14T21:51:30.782Z,100047.44
2022-11-14T21:54:51.033Z,100048.88
2022-11-14T21:58:12.752Z,100053.22
2022-11-14T22:01:53.460Z,100041.38
2022-11-14T22:05:13.783Z,100052.66
2022-11-14T22:08:35.766Z,100043.47
2022-11-14T22:11:56.752Z,100055.44
2022-11-14T22:15:17.009Z,100061.53
2022-11-14T22:18:37.593Z,100051.81
2022-11-14T22:21:57.766Z,100053.38
2022-11-14T22:25:19.200Z,100061.59
2022-11-14T22:28:40.364Z,100065.34
2022-11-14T22:32:00.762Z,100068.34
2022-11-14T22:35:21.143Z,100069.16
2022-11-14T22:38:42.442Z,100069.63
2022-11-14T22:42:04.447Z,100068.31
2022-11-14T22:45:24.619Z,100065.97
2022-11-14T22:48:46.214Z,100060.56
2022-11-14T22:52:06.192Z,100054.38
2022-11-14T22:55:26.253Z,100059.09
2022-11-14T22:58:48.201Z,100063.66
2022-11-14T23:02:08.306Z,100054.78
2022-11-14T23:05:28.916Z,100055.44
2022-11-14T23:08:49.317Z,100056.53
2022-11-14T23:12:09.332Z,100053.81
2022-11-14T23:15:31.028Z,100049.88
2022-11-14T23:18:53.082Z,100045.31
2022-11-14T23:22:13.635Z,100047.56
2022-11-14T23:25:35.428Z,100050.88
2022-11-14T23:28:56.193Z,100042.88
2022-11-14T23:32:17.677Z,100040.03
2022-11-14T23:35:37.870Z,100027.91
2022-11-14T23:38:58.219Z,100022.63
2022-11-14T23:42:18.605Z,100028.22
2022-11-14T23:45:42.442Z,100022.50
2022-11-14T23:49:03.931Z,100025.38
2022-11-14T23:52:24.436Z,100021.38
2022-11-14T23:55:51.561Z,100029.94
2022-11-14T23:59:11.827Z,100029.41
